»·PEaware :: DAL213 KRNO-KSFO

DAL213 :: KRNO-KSFO

FLIGHT INFORMATION

Flight Status: Arrived
Operator:
Delta Air Lines
More flights by this operator :: More flights under this callsign
Pilot: Nicolas L. (9332)
Aircraft: BOEING 737-800
(B738)
More flights by this aircraft type
Origin: KRNO Reno/Tahoe Intl
United States
Destination: KSFO San Francisco Intl
United States
More flights between these airports :: More routes between these airports
Route: +PVINE3 CRDDZ LEGGS BDEGA2
File this flight plan on PilotEdge
Remarks: Live Streaming on Twith "DAL213" and YT
Altitude:
(Current/Filed)
26,000ft
Speed:
(Current/Filed)
400kts
Departed: 01-May-18 09:59 PM
Arrived: 01-May-18 10:43 PM
Distance/Time
Traveled:
167nm/0:44
Distance/Time
To Go:
Arrived

Flight Plot

Page will automatically refresh every two minutes.


Map Options




Map Legend


Flown Route
Filed Route
Departure Airport
Arrival Airport
Navaid (VOR, NDB)
Fix

Horizontal Profiles

Position Reports

Time Latitude Longitude Heading Altitude Ground
Speed
01-May-18 21:33 39.505297 -119.774219 187 4423ft 0kts
01-May-18 21:34 39.505297 -119.774219 187 4423ft 0kts
01-May-18 21:35 39.505297 -119.774219 187 4423ft 0kts
01-May-18 21:36 39.505297 -119.774219 187 4423ft 0kts
01-May-18 21:37 39.505297 -119.774219 187 4423ft 0kts
01-May-18 21:38 39.505297 -119.774219 187 4423ft 0kts
01-May-18 21:39 39.505297 -119.774219 187 4423ft 0kts
01-May-18 21:40 39.505297 -119.774219 187 4423ft 0kts
01-May-18 21:41 39.505297 -119.774219 187 4423ft 0kts
01-May-18 21:42 39.505297 -119.774219 187 4423ft 0kts
01-May-18 21:43 39.505297 -119.774219 187 4423ft 0kts
01-May-18 21:44 39.505297 -119.774219 187 4423ft 0kts
01-May-18 21:45 39.505297 -119.774219 187 4423ft 0kts
01-May-18 21:46 39.505297 -119.774219 187 4423ft 0kts
01-May-18 21:47 39.505456 -119.774200 179 4423ft 2kts
01-May-18 21:48 39.506025 -119.774574 127 4423ft 0kts
01-May-18 21:49 39.506025 -119.774574 127 4423ft 0kts
01-May-18 21:50 39.506025 -119.774574 127 4423ft 0kts
01-May-18 21:51 39.505884 -119.773112 91 4423ft 8kts
01-May-18 21:52 39.504939 -119.771501 179 4423ft 11kts
01-May-18 21:53 39.500950 -119.771492 180 4423ft 12kts
01-May-18 21:54 39.496197 -119.771513 180 4423ft 23kts
01-May-18 21:54 39.491059 -119.771541 180 4423ft 22kts
01-May-18 21:56 39.484956 -119.771553 180 4423ft 13kts
01-May-18 21:57 39.483776 -119.769657 82 4423ft 6kts
01-May-18 21:58 39.484107 -119.769302 3 4423ft 7kts
01-May-18 21:58 39.507901 -119.769198 0 4769ft 173kts
01-May-18 21:59 39.562076 -119.766992 1 7348ft 230kts
01-May-18 22:00 39.617040 -119.813959 294 9901ft 286kts
01-May-18 22:01 39.653977 -119.907800 299 12935ft 308kts
01-May-18 22:02 39.670875 -120.019244 245 15543ft 345kts
01-May-18 22:03 39.620692 -120.128445 249 18470ft 360kts
01-May-18 22:04 39.584221 -120.252227 251 21131ft 376kts
01-May-18 22:05 39.546513 -120.382174 252 23348ft 398kts
01-May-18 22:06 39.491750 -120.513409 239 25204ft 424kts
01-May-18 22:07 39.451047 -120.657146 256 25979ft 428kts
01-May-18 22:08 39.413186 -120.802982 258 25986ft 427kts
01-May-18 22:09 39.375104 -120.949039 258 25977ft 430kts
01-May-18 22:10 39.332752 -121.094157 245 25972ft 444kts
01-May-18 22:11 39.254432 -121.221520 236 25901ft 455kts
01-May-18 22:12 39.173013 -121.346893 235 25894ft 457kts
01-May-18 22:13 39.090861 -121.472282 236 25879ft 459kts
01-May-18 22:14 39.007895 -121.598294 236 25889ft 460kts
01-May-18 22:15 38.925184 -121.723541 236 25892ft 461kts
01-May-18 22:16 38.841900 -121.849168 236 25880ft 461kts
01-May-18 22:17 38.758698 -121.974151 236 25893ft 461kts
01-May-18 22:18 38.674667 -122.099915 236 25908ft 467kts
01-May-18 22:19 38.590144 -122.225812 236 25903ft 467kts
01-May-18 22:20 38.505531 -122.351399 236 25912ft 466kts
01-May-18 22:21 38.420264 -122.477881 236 25939ft 480kts
01-May-18 22:22 38.333439 -122.606577 235 23655ft 474kts
01-May-18 22:23 38.239006 -122.720158 206 20991ft 476kts
01-May-18 22:24 38.117693 -122.735295 167 18769ft 417kts
01-May-18 22:25 38.005303 -122.703820 165 16665ft 408kts
01-May-18 22:26 37.898020 -122.666215 146 14723ft 388kts
01-May-18 22:27 37.817727 -122.586230 138 12844ft 336kts
01-May-18 22:28 37.749872 -122.514780 138 11340ft 307kts
01-May-18 22:29 37.686517 -122.447454 138 10981ft 297kts
01-May-18 22:30 37.621738 -122.382120 150 10250ft 298kts
01-May-18 22:31 37.547694 -122.338301 154 8587ft 290kts
01-May-18 22:32 37.476714 -122.296519 154 7246ft 273kts
01-May-18 22:33 37.429344 -122.228257 114 5700ft 265kts
01-May-18 22:34 37.426654 -122.147465 31 5029ft 254kts
01-May-18 22:35 37.491208 -122.118604 341 3809ft 247kts
01-May-18 22:36 37.536118 -122.173814 298 2760ft 197kts
01-May-18 22:37 37.559034 -122.226403 294 2100ft 155kts
01-May-18 22:38 37.567471 -122.276282 255 1092ft 150kts
01-May-18 22:39 37.563363 -122.322972 283 857ft 126kts
01-May-18 22:40 37.575737 -122.365264 290 734ft 126kts
01-May-18 22:41 37.604095 -122.382659 21 134ft 149kts
01-May-18 22:42 37.621394 -122.372154 293 22ft 14kts
01-May-18 22:43 37.622106 -122.375841 227 22ft 12kts
01-May-18 22:44 37.619810 -122.379102 227 22ft 11kts
01-May-18 22:45 37.618837 -122.381057 191 22ft 3kts
01-May-18 22:46 37.618539 -122.381165 201 22ft 0kts
01-May-18 22:47 37.618539 -122.381165 201 22ft 0kts
01-May-18 22:48 37.618539 -122.381165 201 22ft 0kts
01-May-18 22:49 37.618539 -122.381165 201 22ft 0kts

Navigation Log

Ident Type
1. KRNO Airport
2. PVINE Fix
3. CRDDZ Fix
4. KSFO Airport